Terminal Aerodrome Forecast
Issued by NWS Pueblo, CO

Home | Current Version | Previous Version | Text Only | Print | Product List | Glossary On
Versions: 1 2 3 4 5 6 7 8 9 10 11 12 13 14 15 16 17 18 19 20 21 22 23 24 25 26 27 28 29 30 31 32 33 34 35 36 37 38 39 40 41 42 43 44 45 46 47 48 49 50
094
FTUS45 KPUB 281139
TAFALS
TAF
KALS 281139Z 2812/2912 36005KT P6SM SCT250
     FM281600 20012KT P6SM SCT080 BKN140
     FM282000 25015G25KT P6SM VCSH SCT100 BKN250
     FM290200 30012KT P6SM SCT030 BKN080 PROB30 2902/2904 3SM -SHSN
      BKN030
     FM290900 08015G25KT 3SM -SHSN BKN020=

USA.gov is the U.S. government's official web portal to all federal, state and local government web resources and services.